Home > Products > Valid Products > MTR

000
SAUS46 KMTR 011057
MTRMHS
METAR KMHS 011056Z AUTO 00000KT 10SM CLR 18/08 A3006 RMK AO2 SLP153
T01780078





000
SAUS46 KMTR 011057
MTRMHS
METAR KMHS 011056Z AUTO 00000KT 10SM CLR 18/08 A3006 RMK AO2 SLP153
T01780078





000
SAUS46 KMTR 010957
MTRMHS
METAR KMHS 010956Z AUTO 00000KT 10SM CLR 18/08 A3007 RMK AO2 SLP157
T01780083





000
SAUS46 KMTR 010858
MTRMHS
METAR KMHS 010856Z AUTO 00000KT 10SM CLR 17/09 A3008 RMK AO2 SLP161
T01720094 58004





000
SAUS46 KMTR 010858
MTRMHS
METAR KMHS 010856Z AUTO 00000KT 10SM CLR 17/09 A3008 RMK AO2 SLP161
T01720094 58004





000
SAUS46 KMTR 010758
MTRMHS
METAR KMHS 010756Z AUTO 00000KT 10SM CLR 19/09 A3009 RMK AO2 SLP164
T01890094 403780156





000
SAUS46 KMTR 010758
MTRMHS
METAR KMHS 010756Z AUTO 00000KT 10SM CLR 19/09 A3009 RMK AO2 SLP164
T01890094 403780156





000
SAUS46 KMTR 010657
MTRMHS
METAR KMHS 010656Z AUTO 05003KT 10SM CLR 21/11 A3009 RMK AO2 SLP163
T02060106





000
SAUS46 KMTR 010557
MTRMHS
METAR KMHS 010556Z AUTO 05003KT 10SM CLR 22/11 A3009 RMK AO2 SLP165
T02220106 10328 20217 50006





000
SAUS46 KMTR 010557
MTRMHS
METAR KMHS 010556Z AUTO 05003KT 10SM CLR 22/11 A3009 RMK AO2 SLP165
T02220106 10328 20217 50006





000
SAUS46 KMTR 010457
MTRMHS
METAR KMHS 010456Z AUTO 00000KT 10SM CLR 23/11 A3011 RMK AO2 SLP170
T02280111





000
SAUS46 KMTR 010457
MTRMHS
METAR KMHS 010456Z AUTO 00000KT 10SM CLR 23/11 A3011 RMK AO2 SLP170
T02280111





000
SAUS46 KMTR 010358
MTRMHS
METAR KMHS 010356Z AUTO 00000KT 10SM CLR 26/09 A3008 RMK AO2 SLP161
T02560094





000
SAUS46 KMTR 010158
MTRMHS
METAR KMHS 010156Z AUTO 07004KT 10SM CLR 29/09 A3007 RMK AO2 SLP165
T02940094





000
SAUS46 KMTR 010158
MTRMHS
METAR KMHS 010156Z AUTO 07004KT 10SM CLR 29/09 A3007 RMK AO2 SLP165
T02940094





000
SAUS46 KMTR 010058
MTRMHS
METAR KMHS 010056Z AUTO 08004KT 10SM CLR 32/08 A3009 RMK AO2 SLP169
T03170083





000
SAUS46 KMTR 312358
MTRMHS
METAR KMHS 312356Z AUTO 00000KT 10SM CLR 32/09 A3009 RMK AO2 SLP169
T03220089 10378 20289 56011





000
SAUS46 KMTR 312358
MTRMHS
METAR KMHS 312356Z AUTO 00000KT 10SM CLR 32/09 A3009 RMK AO2 SLP169
T03220089 10378 20289 56011





000
SAUS46 KMTR 312257
MTRMHS
METAR KMHS 312256Z AUTO 00000KT 10SM CLR 36/09 A3010 RMK AO2 SLP166
T03610089





000
SAUS46 KMTR 312157
MTRMHS
METAR KMHS 312156Z AUTO VRB03KT 10SM CLR 37/08 A3010 RMK AO2 SLP168
T03720078





000
SAUS46 KMTR 312057
MTRMHS
METAR KMHS 312056Z AUTO 00000KT 10SM CLR 36/09 A3012 RMK AO2 SLP175
T03610089 58014





000
SAUS46 KMTR 312057
MTRMHS
METAR KMHS 312056Z AUTO 00000KT 10SM CLR 36/09 A3012 RMK AO2 SLP175
T03610089 58014





000
SAUS46 KMTR 311957
MTRMHS
METAR KMHS 311956Z AUTO 31007KT 10SM CLR 35/10 A3015 RMK AO2 SLP183
T03500100





000
SAUS46 KMTR 311857
MTRMHS
METAR KMHS 311856Z AUTO VRB03KT 10SM CLR 34/09 A3016 RMK AO2 SLP187
T03390094





000
SAUS46 KMTR 311857
MTRMHS
METAR KMHS 311856Z AUTO VRB03KT 10SM CLR 34/09 A3016 RMK AO2 SLP187
T03390094





000
SAUS46 KMTR 311757
MTRMHS
METAR KMHS 311756Z AUTO VRB03KT 10SM CLR 31/10 A3017 RMK AO2 SLP195
T03060100 10311 20156 56005





000
SAUS46 KMTR 311658
MTRMHS
METAR KMHS 311656Z AUTO VRB03KT 10SM CLR 30/11 A3017 RMK AO2 SLP194
T03000106





000
SAUS46 KMTR 311557
MTRMHS
METAR KMHS 311556Z AUTO VRB03KT 10SM CLR 27/11 A3018 RMK AO2 SLP198
T02720111





000
SAUS46 KMTR 311457
MTRMHS
METAR KMHS 311456Z AUTO 00000KT 10SM CLR 22/12 A3018 RMK AO2 SLP205
T02170117 53007





000
SAUS46 KMTR 311457
MTRMHS
METAR KMHS 311456Z AUTO 00000KT 10SM CLR 22/12 A3018 RMK AO2 SLP205
T02170117 53007





000
SAUS46 KMTR 311257
MTRMHS
METAR KMHS 311256Z AUTO 05003KT 10SM CLR 16/07 A3017 RMK AO2 SLP199
T01560072





000
SAUS46 KMTR 311157
MTRMHS
METAR KMHS 311156Z AUTO 00000KT 10SM CLR 17/07 A3016 RMK AO2 SLP195
T01670072 10194 20167 50000





000
SAUS46 KMTR 311157
MTRMHS
METAR KMHS 311156Z AUTO 00000KT 10SM CLR 17/07 A3016 RMK AO2 SLP195
T01670072 10194 20167 50000





000
SAUS46 KMTR 311058
MTRMHS
METAR KMHS 311056Z AUTO 00000KT 10SM CLR 18/07 A3016 RMK AO2 SLP189
T01780072





000
SAUS46 KMTR 311058
MTRMHS
METAR KMHS 311056Z AUTO 00000KT 10SM CLR 18/07 A3016 RMK AO2 SLP189
T01780072





000
SAUS46 KMTR 310957
MTRMHS
METAR KMHS 310956Z AUTO 00000KT 10SM CLR 18/07 A3016 RMK AO2 SLP189
T01780072





000
SAUS46 KMTR 310858
MTRMHS
METAR KMHS 310856Z AUTO 04003KT 10SM CLR 19/06 A3016 RMK AO2 SLP187
T01940061 56004





000
SAUS46 KMTR 310858
MTRMHS
METAR KMHS 310856Z AUTO 04003KT 10SM CLR 19/06 A3016 RMK AO2 SLP187
T01940061 56004





000
SAUS46 KMTR 310657
MTRMHS
METAR KMHS 310656Z AUTO 05004KT 10SM CLR 19/07 A3016 RMK AO2 SLP189
T01940067





000
SAUS46 KMTR 310657
MTRMHS
METAR KMHS 310656Z AUTO 05004KT 10SM CLR 19/07 A3016 RMK AO2 SLP189
T01940067





000
SAUS46 KMTR 310557
MTRMHS
METAR KMHS 310556Z AUTO 06003KT 10SM CLR 19/08 A3017 RMK AO2 SLP195
T01940078 10306 20183 51012





000
SAUS46 KMTR 310557
MTRMHS
METAR KMHS 310556Z AUTO 06003KT 10SM CLR 19/08 A3017 RMK AO2 SLP195
T01940078 10306 20183 51012





000
SAUS46 KMTR 310458
MTRMHS
METAR KMHS 310456Z AUTO 00000KT 10SM CLR 21/09 A3016 RMK AO2 SLP195
T02060094





000
SAUS46 KMTR 310357
MTRMHS
METAR KMHS 310356Z AUTO 00000KT 10SM CLR 22/11 A3015 RMK AO2 SLP192
T02220111





000
SAUS46 KMTR 310257
MTRMHS
METAR KMHS 310256Z AUTO 00000KT 10SM CLR 24/12 A3014 RMK AO2 SLP191
T02390122 51004





000
SAUS46 KMTR 310158
MTRMHS
METAR KMHS 310156Z AUTO 00000KT 10SM CLR 27/12 A3013 RMK AO2 SLP193
T02670117





000
SAUS46 KMTR 310058
MTRMHS
METAR KMHS 310056Z AUTO 36004KT 10SM CLR 29/08 A3013 RMK AO2 SLP192
T02890078





000
SAUS46 KMTR 302357
MTRMHS
METAR KMHS 302356Z AUTO 34004KT 10SM CLR 31/07 A3012 RMK AO2 SLP187
T03060072 10372 20300 56012





000
SAUS46 KMTR 302357
MTRMHS
METAR KMHS 302356Z AUTO 34004KT 10SM CLR 31/07 A3012 RMK AO2 SLP187
T03060072 10372 20300 56012





000
SAUS46 KMTR 302157
MTRMHS
METAR KMHS 302156Z AUTO VRB03KT 10SM CLR 37/05 A3014 RMK AO2 SLP185
T03670050





000
SAUS46 KMTR 301957
MTRMHS
METAR KMHS 301956Z AUTO 00000KT 10SM CLR 36/04 A3018 RMK AO2 SLP197
T03610039





000
SAUS46 KMTR 301957
MTRMHS
METAR KMHS 301956Z AUTO 00000KT 10SM CLR 36/04 A3018 RMK AO2 SLP197
T03610039





000
SAUS46 KMTR 301857
MTRMHS
METAR KMHS 301856Z AUTO 00000KT 10SM CLR 34/03 A3019 RMK AO2 SLP201
T03440033





000
SAUS46 KMTR 301857
MTRMHS
METAR KMHS 301856Z AUTO 00000KT 10SM CLR 34/03 A3019 RMK AO2 SLP201
T03440033





000
SAUS46 KMTR 301757
MTRMHS
METAR KMHS 301756Z AUTO 00000KT 10SM CLR 32/09 A3019 RMK AO2 SLP204
T03170089 10317 20100 58000





000
SAUS46 KMTR 301757
MTRMHS
METAR KMHS 301756Z AUTO 00000KT 10SM CLR 32/09 A3019 RMK AO2 SLP204
T03170089 10317 20100 58000





000
SAUS46 KMTR 301457
MTRMHS
METAR KMHS 301456Z AUTO 00000KT 10SM CLR 18/09 A3019 RMK AO2 SLP209
T01780094 51010





000
SAUS46 KMTR 301457
MTRMHS
METAR KMHS 301456Z AUTO 00000KT 10SM CLR 18/09 A3019 RMK AO2 SLP209
T01780094 51010





000
SAUS46 KMTR 301357
MTRMHS
METAR KMHS 301356Z AUTO 00000KT 10SM CLR 11/05 A3018 RMK AO2 SLP208
T01110050





000
SAUS46 KMTR 301357
MTRMHS
METAR KMHS 301356Z AUTO 00000KT 10SM CLR 11/05 A3018 RMK AO2 SLP208
T01110050





000
SAUS46 KMTR 301257
MTRMHS
METAR KMHS 301256Z AUTO 00000KT 10SM CLR 11/04 A3017 RMK AO2 SLP200
T01110039





000
SAUS46 KMTR 301157
MTRMHS
METAR KMHS 301156Z AUTO 00000KT 10SM CLR 11/04 A3016 RMK AO2 SLP195
T01110044 10167 20106 53003





000
SAUS46 KMTR 301157
MTRMHS
METAR KMHS 301156Z AUTO 00000KT 10SM CLR 11/04 A3016 RMK AO2 SLP195
T01110044 10167 20106 53003





000
SAUS46 KMTR 301057
MTRMHS
METAR KMHS 301056Z AUTO 00000KT 10SM CLR 11/04 A3015 RMK AO2 SLP193
T01110044





000
SAUS46 KMTR 300857
MTRMHS
METAR KMHS 300856Z AUTO 00000KT 10SM CLR 13/04 A3014 RMK AO2 SLP190
T01280044 51006





000
SAUS46 KMTR 300657
MTRMHS
METAR KMHS 300656Z AUTO 02003KT 10SM CLR 15/05 A3013 RMK AO2 SLP187
T01500050





000
SAUS46 KMTR 300657
MTRMHS
METAR KMHS 300656Z AUTO 02003KT 10SM CLR 15/05 A3013 RMK AO2 SLP187
T01500050





000
SAUS46 KMTR 300557
MTRMHS
METAR KMHS 300556Z AUTO 05003KT 10SM CLR 16/06 A3012 RMK AO2 SLP184
T01610061 10339 20161 51013





000
SAUS46 KMTR 300557
MTRMHS
METAR KMHS 300556Z AUTO 05003KT 10SM CLR 16/06 A3012 RMK AO2 SLP184
T01610061 10339 20161 51013





000
SAUS46 KMTR 300457
MTRMHS
METAR KMHS 300456Z AUTO 00000KT 10SM CLR 19/07 A3012 RMK AO2 SLP183
T01890067





000
SAUS46 KMTR 300357
MTRMHS
METAR KMHS 300356Z AUTO VRB03KT 10SM CLR 22/08 A3010 RMK AO2 SLP176
T02220078





000
SAUS46 KMTR 300357
MTRMHS
METAR KMHS 300356Z AUTO VRB03KT 10SM CLR 22/08 A3010 RMK AO2 SLP176
T02220078





000
SAUS46 KMTR 300257
MTRMHS
METAR KMHS 300256Z AUTO 00000KT 10SM CLR 26/13 A3008 RMK AO2 SLP172
T02560128 53002





000
SAUS46 KMTR 300257
MTRMHS
METAR KMHS 300256Z AUTO 00000KT 10SM CLR 26/13 A3008 RMK AO2 SLP172
T02560128 53002





000
SAUS46 KMTR 300057
MTRMHS
METAR KMHS 300056Z AUTO 00000KT 10SM CLR 33/M01 A3007 RMK AO2 SLP169
T03281006





000
SAUS46 KMTR 292357
MTRMHS
METAR KMHS 292356Z AUTO 00000KT 10SM CLR 34/M01 A3008 RMK AO2 SLP168
T03391011 10356 20278 58013





000
SAUS46 KMTR 292257
MTRMHS
METAR KMHS 292256Z AUTO 00000KT 10SM CLR 34/01 A3009 RMK AO2 SLP172
T03440006





000
SAUS46 KMTR 292257
MTRMHS
METAR KMHS 292256Z AUTO 00000KT 10SM CLR 34/01 A3009 RMK AO2 SLP172
T03440006





000
SAUS46 KMTR 292157
MTRMHS
METAR KMHS 292156Z AUTO 00000KT 10SM CLR 35/03 A3011 RMK AO2 SLP177
T03500028





000
SAUS46 KMTR 292057
MTRMHS
METAR KMHS 292056Z AUTO VRB03KT 10SM CLR 34/03 A3012 RMK AO2 SLP180
T03390033 58013





000
SAUS46 KMTR 291957
MTRMHS
METAR KMHS 291956Z AUTO 00000KT 10SM CLR 33/04 A3013 RMK AO2 SLP186
T03280039





000
SAUS46 KMTR 291757
MTRMHS
METAR KMHS 291756Z AUTO 00000KT 10SM CLR 28/05 A3016 RMK AO2 SLP200
T02830050 10283 20089 58003





000
SAUS46 KMTR 291757
MTRMHS
METAR KMHS 291756Z AUTO 00000KT 10SM CLR 28/05 A3016 RMK AO2 SLP200
T02830050 10283 20089 58003





000
SAUS46 KMTR 291657
MTRMHS
METAR KMHS 291656Z AUTO VRB04KT 10SM CLR 26/07 A3017 RMK AO2 SLP202
T02560067





000
SAUS46 KMTR 291657
MTRMHS
METAR KMHS 291656Z AUTO VRB04KT 10SM CLR 26/07 A3017 RMK AO2 SLP202
T02560067





000
SAUS46 KMTR 291357
MTRMHS
METAR KMHS 291356Z AUTO 06006KT 10SM CLR 12/03 A3016 RMK AO2 SLP205
T01170033 $





000
SAUS46 KMTR 291257
MTRMHS
METAR KMHS 291256Z AUTO VRB03KT 10SM CLR 09/04 A3015 RMK AO2 SLP201
T00940039 $





000
SAUS46 KMTR 291257
MTRMHS
METAR KMHS 291256Z AUTO VRB03KT 10SM CLR 09/04 A3015 RMK AO2 SLP201
T00940039 $





000
SAUS46 KMTR 291157
MTRMHS
METAR KMHS 291156Z AUTO 00000KT 10SM CLR 11/04 A3014 RMK AO2 SLP196
T01060039 10150 20094 53002 $





000
SAUS46 KMTR 291157
MTRMHS
METAR KMHS 291156Z AUTO 00000KT 10SM CLR 11/04 A3014 RMK AO2 SLP196
T01060039 10150 20094 53002 $





    US Dept of Commerce
    National Oceanic and Atmospheric Administration
    National Weather Service
    1325 East West Highway
    Silver Spring, MD 20910
    Page Author: NWS Internet Services Team
Disclaimer
Information Quality
Credits
Glossary
Privacy Policy
Freedom of Information Act (FOIA)
About Us
Career Opportunities